createdAt,value
2022-09-20T00:02:11.031Z,8.91
2022-09-20T00:04:41.716Z,8.93
2022-09-20T00:07:12.197Z,8.94
2022-09-20T00:09:42.826Z,8.95
2022-09-20T00:12:13.297Z,8.95
2022-09-20T00:14:43.593Z,8.95
2022-09-20T00:17:13.888Z,8.94
2022-09-20T00:19:44.446Z,8.93
2022-09-20T00:22:14.850Z,8.92
2022-09-20T00:24:48.903Z,8.92
2022-09-20T00:27:19.656Z,8.91
2022-09-20T00:29:50.017Z,8.91
2022-09-20T00:32:20.774Z,8.90
2022-09-20T00:35:10.737Z,8.88
2022-09-20T00:37:43.263Z,8.90
2022-09-20T00:40:16.905Z,8.89
2022-09-20T00:42:47.646Z,8.89
2022-09-20T00:45:23.538Z,8.88
2022-09-20T00:47:58.080Z,8.87
2022-09-20T00:50:38.139Z,8.86
2022-09-20T00:53:13.558Z,8.84
2022-09-20T00:55:48.798Z,8.82
2022-09-20T00:58:21.263Z,8.80
2022-09-20T01:00:53.395Z,8.79
2022-09-20T01:03:26.016Z,8.78
2022-09-20T01:05:57.389Z,8.76
2022-09-20T01:08:26.600Z,8.74
2022-09-20T01:10:57.154Z,8.73
2022-09-20T01:13:31.121Z,8.69
2022-09-20T01:16:03.663Z,8.65
2022-09-20T01:18:36.526Z,8.60
2022-09-20T01:21:08.242Z,8.55
2022-09-20T01:23:58.874Z,8.51
2022-09-20T01:26:42.621Z,8.45
2022-09-20T01:29:28.792Z,8.40
2022-09-20T01:32:02.533Z,8.37
2022-09-20T01:34:36.944Z,8.34
2022-09-20T01:37:15.806Z,8.30
2022-09-20T01:39:58.699Z,8.26
2022-09-20T01:42:37.986Z,8.21
2022-09-20T01:45:20.050Z,8.15
2022-09-20T01:48:00.311Z,8.11
2022-09-20T01:50:38.557Z,8.09
2022-09-20T01:53:43.989Z,8.06
2022-09-20T01:56:34.080Z,8.04
2022-09-20T01:59:24.222Z,8.02
2022-09-20T02:02:18.007Z,8.02
2022-09-20T02:05:19.322Z,8.02
2022-09-20T02:08:25.469Z,8.01
2022-09-20T02:11:10.587Z,8.00
2022-09-20T02:13:59.337Z,8.01
2022-09-20T02:16:49.664Z,8.01
2022-09-20T02:19:39.343Z,8.02
2022-09-20T02:22:31.260Z,8.02
2022-09-20T02:25:13.124Z,8.04
2022-09-20T02:27:56.444Z,8.04
2022-09-20T02:30:44.849Z,8.04
2022-09-20T02:33:33.891Z,8.04
2022-09-20T02:36:23.163Z,8.04
2022-09-20T02:39:08.996Z,8.02
2022-09-20T02:42:00.161Z,8.00
2022-09-20T02:44:46.711Z,7.98
2022-09-20T02:47:27.624Z,7.96
2022-09-20T02:50:12.286Z,7.92
2022-09-20T02:52:50.677Z,7.89
2022-09-20T02:55:28.816Z,7.85
2022-09-20T02:58:10.069Z,7.81
2022-09-20T03:00:48.576Z,7.77
2022-09-20T03:03:32.701Z,7.74
2022-09-20T03:06:10.015Z,7.71
2022-09-20T03:08:51.762Z,7.67
2022-09-20T03:11:32.733Z,7.64
2022-09-20T03:14:17.948Z,7.62
2022-09-20T03:16:59.690Z,7.59
2022-09-20T03:19:45.408Z,7.57
2022-09-20T03:22:28.393Z,7.55
2022-09-20T03:25:16.599Z,7.51
2022-09-20T03:28:00.437Z,7.48
2022-09-20T03:30:45.465Z,7.45
2022-09-20T03:33:25.372Z,7.42
2022-09-20T03:36:09.232Z,7.37
2022-09-20T03:39:03.430Z,7.33
2022-09-20T03:42:04.436Z,7.29
2022-09-20T03:44:49.489Z,7.25
2022-09-20T03:47:36.785Z,7.21
2022-09-20T03:50:33.323Z,7.17
2022-09-20T03:53:30.376Z,7.12
2022-09-20T03:56:16.694Z,7.08
2022-09-20T03:59:09.752Z,7.04
2022-09-20T04:01:58.478Z,6.99
2022-09-20T04:04:34.083Z,6.95
2022-09-20T04:07:18.829Z,6.92
2022-09-20T04:10:11.277Z,6.87
2022-09-20T04:12:50.318Z,6.83
2022-09-20T04:15:30.967Z,6.79
2022-09-20T04:18:06.995Z,6.76
2022-09-20T04:20:47.167Z,6.73
2022-09-20T04:23:31.839Z,6.70
2022-09-20T04:26:04.229Z,6.67
2022-09-20T04:28:42.536Z,6.64
2022-09-20T04:31:25.505Z,6.61
2022-09-20T04:33:58.383Z,6.58
2022-09-20T04:36:57.814Z,6.55
2022-09-20T04:39:42.363Z,6.51
2022-09-20T04:42:49.930Z,6.49
2022-09-20T04:46:11.641Z,6.45
2022-09-20T04:49:08.221Z,6.44
2022-09-20T04:52:16.589Z,6.42
2022-09-20T04:55:06.363Z,6.40
2022-09-20T04:57:57.862Z,6.38
2022-09-20T05:00:39.779Z,6.36
2022-09-20T05:03:59.949Z,6.34
2022-09-20T05:06:58.373Z,6.31
2022-09-20T05:09:55.259Z,6.29
2022-09-20T05:12:53.377Z,6.27
2022-09-20T05:15:47.699Z,6.27
2022-09-20T05:18:52.441Z,6.26
2022-09-20T05:22:01.600Z,6.26
2022-09-20T05:25:01.974Z,6.27
2022-09-20T05:27:43.184Z,6.27
2022-09-20T05:30:23.920Z,6.28
2022-09-20T05:33:06.322Z,6.29
2022-09-20T05:35:41.500Z,6.29
2022-09-20T05:38:24.156Z,6.29
2022-09-20T05:41:10.637Z,6.28
2022-09-20T05:43:51.585Z,6.30
2022-09-20T05:46:37.772Z,6.30
2022-09-20T05:49:20.105Z,6.31
2022-09-20T05:52:24.796Z,6.31
2022-09-20T05:55:17.404Z,6.33
2022-09-20T05:58:04.613Z,6.35
2022-09-20T06:00:40.983Z,6.38
2022-09-20T06:03:20.000Z,6.40
2022-09-20T06:06:00.019Z,6.43
2022-09-20T06:09:00.083Z,6.47
2022-09-20T06:12:03.304Z,6.53
2022-09-20T06:14:46.681Z,6.61
2022-09-20T06:17:27.979Z,6.69
2022-09-20T06:20:16.266Z,6.79
2022-09-20T06:22:50.112Z,6.91
2022-09-20T06:25:24.688Z,7.02
2022-09-20T06:27:59.871Z,7.12
2022-09-20T06:30:35.407Z,7.24
2022-09-20T06:33:17.839Z,7.34
2022-09-20T06:35:55.782Z,7.44
2022-09-20T06:39:06.090Z,7.54
2022-09-20T06:41:37.997Z,7.66
2022-09-20T06:44:08.563Z,7.77
2022-09-20T06:46:41.240Z,7.89
2022-09-20T06:49:11.984Z,8.01
2022-09-20T06:51:43.441Z,8.13
2022-09-20T06:54:17.770Z,8.26
2022-09-20T06:56:51.241Z,8.40
2022-09-20T06:59:21.821Z,8.57
2022-09-20T07:01:53.537Z,8.76
2022-09-20T07:04:26.990Z,9.00
2022-09-20T07:07:06.190Z,9.20
2022-09-20T07:09:40.064Z,9.38
2022-09-20T07:12:12.455Z,9.49
2022-09-20T07:14:44.388Z,9.56
2022-09-20T07:17:14.893Z,9.63
2022-09-20T07:19:45.299Z,9.69
2022-09-20T07:22:15.735Z,9.77
2022-09-20T07:24:46.418Z,9.88
2022-09-20T07:27:16.953Z,10.02
2022-09-20T07:29:47.607Z,10.17
2022-09-20T07:32:18.097Z,10.35
2022-09-20T07:34:51.615Z,10.53
2022-09-20T07:37:28.448Z,10.68
2022-09-20T07:40:02.266Z,10.82
2022-09-20T07:42:33.997Z,10.97
2022-09-20T07:45:04.725Z,11.13
2022-09-20T07:47:36.273Z,11.25
2022-09-20T07:50:09.820Z,11.36
2022-09-20T07:52:40.227Z,11.46
2022-09-20T07:55:11.474Z,11.56
2022-09-20T07:57:42.801Z,11.63
2022-09-20T08:00:12.457Z,11.67
2022-09-20T08:02:42.871Z,11.73
2022-09-20T08:05:13.498Z,11.74
2022-09-20T08:07:43.944Z,11.71
2022-09-20T08:10:14.570Z,11.69
2022-09-20T08:15:35.928Z,11.74
2022-09-20T08:18:08.429Z,11.73
2022-09-20T08:20:40.558Z,11.69
2022-09-20T08:23:23.424Z,11.71
2022-09-20T08:25:57.798Z,11.73
2022-09-20T08:28:28.325Z,11.68
2022-09-20T08:31:04.631Z,11.66
2022-09-20T08:33:36.516Z,11.64
2022-09-20T08:36:07.699Z,11.67
2022-09-20T08:41:32.486Z,11.82
2022-09-20T08:44:07.262Z,11.97
2022-09-20T08:46:42.652Z,12.09
2022-09-20T08:49:20.471Z,12.20
2022-09-20T08:51:51.858Z,12.24
2022-09-20T08:54:24.223Z,12.25
2022-09-20T08:56:55.792Z,12.26
2022-09-20T08:59:26.324Z,12.27
2022-09-20T09:01:56.786Z,12.36
2022-09-20T09:04:35.042Z,12.40
2022-09-20T09:07:08.266Z,12.43
2022-09-20T09:09:41.828Z,12.60
2022-09-20T09:12:22.508Z,12.88
2022-09-20T09:14:55.911Z,13.14
2022-09-20T09:17:29.012Z,13.29
2022-09-20T09:20:02.063Z,13.35
2022-09-20T09:22:42.205Z,13.36
2022-09-20T09:25:25.209Z,13.41
2022-09-20T09:27:59.601Z,13.52
2022-09-20T09:30:33.668Z,13.61
2022-09-20T09:33:28.931Z,13.64
2022-09-20T09:36:06.336Z,13.73
2022-09-20T09:38:40.118Z,13.83
2022-09-20T09:41:26.471Z,13.91
2022-09-20T09:44:09.984Z,13.98
2022-09-20T09:46:41.688Z,14.01
2022-09-20T09:49:16.702Z,14.01
2022-09-20T09:52:03.460Z,14.03
2022-09-20T09:54:37.302Z,14.06
2022-09-20T09:57:17.348Z,14.16
2022-09-20T10:00:21.614Z,14.20
2022-09-20T10:03:14.263Z,14.30
2022-09-20T10:05:57.946Z,14.34
2022-09-20T10:08:41.050Z,14.36
2022-09-20T10:11:22.275Z,14.41
2022-09-20T10:14:03.444Z,14.47
2022-09-20T10:16:47.847Z,14.53
2022-09-20T10:19:26.761Z,14.60
2022-09-20T10:22:19.557Z,14.63
2022-09-20T10:24:57.870Z,14.70
2022-09-20T10:27:43.711Z,14.66
2022-09-20T10:30:23.657Z,14.61
2022-09-20T10:33:05.380Z,14.59
2022-09-20T10:36:01.170Z,14.63
2022-09-20T10:38:37.002Z,14.63
2022-09-20T10:41:39.589Z,14.60
2022-09-20T10:44:26.078Z,14.45
2022-09-20T10:47:06.895Z,14.45
2022-09-20T10:49:50.735Z,14.60
2022-09-20T10:52:43.386Z,14.81
2022-09-20T10:55:45.273Z,15.05
2022-09-20T10:58:45.371Z,15.26
2022-09-20T11:01:22.546Z,15.55
2022-09-20T11:04:20.249Z,15.79
2022-09-20T11:07:03.836Z,16.14
2022-09-20T11:09:39.894Z,16.47
2022-09-20T11:12:22.638Z,16.47
2022-09-20T11:14:58.935Z,16.60
2022-09-20T11:17:36.420Z,16.85
2022-09-20T11:20:16.756Z,16.91
2022-09-20T11:22:52.572Z,16.92
2022-09-20T11:25:30.419Z,16.77
2022-09-20T11:28:06.321Z,16.54
2022-09-20T11:30:43.415Z,16.37
2022-09-20T11:33:23.871Z,16.17
2022-09-20T11:35:59.072Z,16.02
2022-09-20T11:38:34.133Z,15.96
2022-09-20T11:41:10.271Z,15.93
2022-09-20T11:43:42.752Z,15.96
2022-09-20T11:46:20.682Z,16.03
2022-09-20T11:48:56.661Z,16.23
2022-09-20T11:51:49.523Z,16.44
2022-09-20T11:54:44.372Z,16.53
2022-09-20T11:57:17.742Z,16.52
2022-09-20T11:59:56.216Z,16.35
2022-09-20T12:02:35.545Z,16.18
2022-09-20T12:05:23.973Z,15.98
2022-09-20T12:07:58.219Z,15.79
2022-09-20T12:10:33.722Z,15.62
2022-09-20T12:13:06.853Z,15.53
2022-09-20T12:15:40.007Z,15.46
2022-09-20T12:18:47.640Z,15.46
2022-09-20T12:21:20.865Z,15.51
2022-09-20T12:24:20.970Z,15.57
2022-09-20T12:26:55.855Z,15.69
2022-09-20T12:30:15.095Z,15.78
2022-09-20T12:32:54.044Z,15.98
2022-09-20T12:35:59.326Z,16.14
2022-09-20T12:38:49.755Z,16.67
2022-09-20T12:41:28.321Z,17.34
2022-09-20T12:44:05.345Z,17.79
2022-09-20T12:46:44.096Z,18.07
2022-09-20T12:49:52.172Z,18.31
2022-09-20T12:52:57.014Z,18.29
2022-09-20T12:55:47.149Z,18.58
2022-09-20T12:58:32.977Z,18.76
2022-09-20T13:01:30.283Z,18.85
2022-09-20T13:04:37.077Z,18.80
2022-09-20T13:07:33.385Z,18.60
2022-09-20T13:10:10.290Z,18.45
2022-09-20T13:12:43.298Z,18.30
2022-09-20T13:15:21.651Z,18.18
2022-09-20T13:17:55.084Z,18.03
2022-09-20T13:20:31.499Z,17.91
2022-09-20T13:23:03.444Z,17.76
2022-09-20T13:25:40.079Z,17.73
2022-09-20T13:28:21.281Z,17.71
2022-09-20T13:30:51.913Z,17.68
2022-09-20T13:33:26.384Z,17.50
2022-09-20T13:35:59.008Z,17.29
2022-09-20T13:38:32.541Z,17.17
2022-09-20T13:41:09.100Z,17.07
2022-09-20T13:43:43.620Z,17.01
2022-09-20T13:46:17.026Z,16.86
2022-09-20T13:48:49.447Z,16.64
2022-09-20T13:51:24.884Z,16.53
2022-09-20T13:54:15.497Z,16.40
2022-09-20T13:56:46.127Z,16.34
2022-09-20T13:59:19.573Z,16.27
2022-09-20T14:01:55.347Z,16.19
2022-09-20T14:04:28.962Z,16.02
2022-09-20T14:07:01.471Z,15.86
2022-09-20T14:09:35.372Z,15.67
2022-09-20T14:12:08.133Z,15.50
2022-09-20T14:14:38.946Z,15.37
2022-09-20T14:17:10.597Z,15.22
2022-09-20T14:19:46.135Z,15.05
2022-09-20T14:22:23.754Z,14.92
2022-09-20T14:25:02.622Z,14.84
2022-09-20T14:27:33.220Z,14.80
2022-09-20T14:30:04.530Z,14.75
2022-09-20T14:32:38.614Z,14.71
2022-09-20T14:35:15.975Z,14.68
2022-09-20T14:37:48.935Z,14.70
2022-09-20T14:40:29.089Z,14.81
2022-09-20T14:43:02.105Z,15.25
2022-09-20T14:45:35.529Z,15.94
2022-09-20T14:48:11.120Z,16.67
2022-09-20T14:50:43.561Z,17.33
2022-09-20T14:53:28.121Z,17.47
2022-09-20T14:56:01.265Z,17.48
2022-09-20T14:58:31.662Z,17.39
2022-09-20T15:01:07.862Z,17.27
2022-09-20T15:03:41.544Z,17.03
2022-09-20T15:06:14.762Z,16.80
2022-09-20T15:08:46.728Z,16.72
2022-09-20T15:11:18.591Z,16.78
2022-09-20T15:13:49.171Z,16.79
2022-09-20T15:16:21.945Z,16.85
2022-09-20T15:18:52.569Z,17.01
2022-09-20T15:21:23.695Z,16.99
2022-09-20T15:23:54.269Z,16.89
2022-09-20T15:26:24.828Z,16.76
2022-09-20T15:28:55.323Z,16.62
2022-09-20T15:31:25.856Z,16.48
2022-09-20T15:33:56.313Z,16.33
2022-09-20T15:36:31.969Z,16.13
2022-09-20T15:39:02.767Z,15.86
2022-09-20T15:41:33.613Z,15.64
2022-09-20T15:44:04.482Z,15.43
2022-09-20T15:46:35.571Z,15.24
2022-09-20T15:49:09.079Z,15.07
2022-09-20T15:51:40.051Z,14.94
2022-09-20T15:54:13.900Z,14.84
2022-09-20T15:56:44.270Z,14.75
2022-09-20T15:59:23.176Z,14.65
2022-09-20T16:01:53.693Z,14.53
2022-09-20T16:04:27.405Z,14.43
2022-09-20T16:06:58.100Z,14.32
2022-09-20T16:09:28.615Z,14.24
2022-09-20T16:12:00.263Z,14.17
2022-09-20T16:14:30.732Z,14.12
2022-09-20T16:17:02.938Z,14.06
2022-09-20T16:19:34.053Z,14.00
2022-09-20T16:22:04.517Z,13.96
2022-09-20T16:24:36.411Z,13.91
2022-09-20T16:27:49.774Z,13.86
2022-09-20T16:30:20.885Z,13.81
2022-09-20T16:32:53.110Z,13.76
2022-09-20T16:35:23.644Z,13.72
2022-09-20T16:37:54.395Z,13.68
2022-09-20T16:40:25.020Z,13.64
2022-09-20T16:43:27.507Z,13.61
2022-09-20T16:46:05.877Z,13.55
2022-09-20T16:48:36.577Z,13.52
2022-09-20T16:51:08.105Z,13.48
2022-09-20T16:53:38.520Z,13.43
2022-09-20T16:56:18.480Z,13.38
2022-09-20T16:58:49.933Z,13.35
2022-09-20T17:01:21.199Z,13.31
2022-09-20T17:03:50.367Z,13.26
2022-09-20T17:06:20.775Z,13.20
2022-09-20T17:08:58.798Z,13.15
2022-09-20T17:11:32.883Z,13.09
2022-09-20T17:14:03.839Z,13.02
2022-09-20T17:16:36.238Z,12.96
2022-09-20T17:19:15.994Z,12.88
2022-09-20T17:21:50.509Z,12.81
2022-09-20T17:24:23.121Z,12.74
2022-09-20T17:26:53.911Z,12.64
2022-09-20T17:29:24.354Z,12.54
2022-09-20T17:31:59.416Z,12.42
2022-09-20T17:34:31.655Z,12.32
2022-09-20T17:37:03.480Z,12.22
2022-09-20T17:39:34.013Z,12.13
2022-09-20T17:42:04.549Z,12.04
2022-09-20T17:44:37.475Z,11.94
2022-09-20T17:47:08.053Z,11.81
2022-09-20T17:49:40.576Z,11.67
2022-09-20T17:52:11.159Z,11.52
2022-09-20T17:54:42.193Z,11.36
2022-09-20T17:57:12.726Z,11.23
2022-09-20T17:59:43.153Z,11.10
2022-09-20T18:02:13.529Z,10.97
2022-09-20T18:04:44.075Z,10.85
2022-09-20T18:07:15.222Z,10.73
2022-09-20T18:09:45.552Z,10.60
2022-09-20T18:12:19.808Z,10.51
2022-09-20T18:14:53.920Z,10.41
2022-09-20T18:17:24.236Z,10.33
2022-09-20T18:19:54.848Z,10.25
2022-09-20T18:22:25.398Z,10.15
2022-09-20T18:24:56.116Z,10.07
2022-09-20T18:27:26.529Z,10.00
2022-09-20T18:29:56.940Z,9.91
2022-09-20T18:32:30.599Z,9.82
2022-09-20T18:35:01.926Z,9.73
2022-09-20T18:37:32.354Z,9.66
2022-09-20T18:40:03.100Z,9.58
2022-09-20T18:42:33.638Z,9.51
2022-09-20T18:45:04.026Z,9.43
2022-09-20T18:47:34.417Z,9.35
2022-09-20T18:50:05.683Z,9.29
2022-09-20T18:52:38.722Z,9.26
2022-09-20T18:55:10.550Z,9.26
2022-09-20T18:57:41.536Z,9.21
2022-09-20T19:00:14.460Z,9.14
2022-09-20T19:03:08.051Z,9.06
2022-09-20T19:05:44.515Z,8.99
2022-09-20T19:08:26.394Z,8.92
2022-09-20T19:11:03.251Z,8.85
2022-09-20T19:13:45.281Z,8.79
2022-09-20T19:16:20.965Z,8.73
2022-09-20T19:19:22.640Z,8.68
2022-09-20T19:22:01.011Z,8.62
2022-09-20T19:24:43.440Z,8.57
2022-09-20T19:27:15.914Z,8.53
2022-09-20T19:29:47.432Z,8.49
2022-09-20T19:32:21.053Z,8.46
2022-09-20T19:34:55.892Z,8.44
2022-09-20T19:37:36.701Z,8.41
2022-09-20T19:40:18.013Z,8.38
2022-09-20T19:43:05.043Z,8.36
2022-09-20T19:45:46.943Z,8.34
2022-09-20T19:48:23.883Z,8.33
2022-09-20T19:50:56.654Z,8.32
2022-09-20T19:53:28.040Z,8.30
2022-09-20T19:56:00.628Z,8.30
2022-09-20T19:58:31.922Z,8.29
2022-09-20T20:01:03.257Z,8.28
2022-09-20T20:03:32.896Z,8.28
2022-09-20T20:06:10.481Z,8.28
2022-09-20T20:08:50.644Z,8.29
2022-09-20T20:11:33.574Z,8.29
2022-09-20T20:14:19.893Z,8.30
2022-09-20T20:17:02.585Z,8.31
2022-09-20T20:19:55.718Z,8.33
2022-09-20T20:22:48.004Z,8.36
2022-09-20T20:25:26.863Z,8.38
2022-09-20T20:27:57.576Z,8.40
2022-09-20T20:30:27.997Z,8.41
2022-09-20T20:32:59.022Z,8.42
2022-09-20T20:35:29.737Z,8.43
2022-09-20T20:38:00.231Z,8.46
2022-09-20T20:40:32.863Z,8.47
2022-09-20T20:43:03.351Z,8.48
2022-09-20T20:45:33.809Z,8.50
2022-09-20T20:48:04.576Z,8.51
2022-09-20T20:50:35.418Z,8.54
2022-09-20T20:53:06.746Z,8.55
2022-09-20T20:55:37.220Z,8.57
2022-09-20T20:58:08.598Z,8.59
2022-09-20T21:00:39.141Z,8.59
2022-09-20T21:03:10.953Z,8.59
2022-09-20T21:05:41.359Z,8.59
2022-09-20T21:08:12.009Z,8.59
2022-09-20T21:10:42.400Z,8.59
2022-09-20T21:13:12.768Z,8.59
2022-09-20T21:15:43.121Z,8.60
2022-09-20T21:18:13.568Z,8.60
2022-09-20T21:20:43.995Z,8.59
2022-09-20T21:23:14.306Z,8.57
2022-09-20T21:25:45.095Z,8.54
2022-09-20T21:28:15.513Z,8.51
2022-09-20T21:30:45.879Z,8.48
2022-09-20T21:33:16.302Z,8.45
2022-09-20T21:35:46.681Z,8.44
2022-09-20T21:38:17.109Z,8.41
2022-09-20T21:40:47.498Z,8.38
2022-09-20T21:43:17.825Z,8.35
2022-09-20T21:45:51.096Z,8.32
2022-09-20T21:48:21.689Z,8.31
2022-09-20T21:50:52.034Z,8.29
2022-09-20T21:53:22.523Z,8.26
2022-09-20T21:55:58.941Z,8.23
2022-09-20T21:58:30.256Z,8.21
2022-09-20T22:01:03.375Z,8.17
2022-09-20T22:03:36.373Z,8.13
2022-09-20T22:06:13.300Z,8.09
2022-09-20T22:08:47.416Z,8.06
2022-09-20T22:11:18.948Z,8.03
2022-09-20T22:13:51.372Z,8.00
2022-09-20T22:16:23.849Z,7.97
2022-09-20T22:18:54.598Z,7.95
2022-09-20T22:21:27.350Z,7.93
2022-09-20T22:24:00.883Z,7.93
2022-09-20T22:26:33.698Z,7.92
2022-09-20T22:29:04.383Z,7.91
2022-09-20T22:31:37.130Z,7.91
2022-09-20T22:34:08.636Z,7.92
2022-09-20T22:36:38.422Z,7.93
2022-09-20T22:39:12.206Z,7.93
2022-09-20T22:41:44.592Z,7.94
2022-09-20T22:44:14.947Z,7.94
2022-09-20T22:46:45.364Z,7.95
2022-09-20T22:49:15.717Z,7.96
2022-09-20T22:51:46.235Z,7.98
2022-09-20T22:54:16.716Z,7.98
2022-09-20T22:56:48.581Z,7.99
2022-09-20T22:59:19.430Z,8.00
2022-09-20T23:01:50.270Z,8.01
2022-09-20T23:04:23.434Z,8.00
2022-09-20T23:06:55.564Z,8.01
2022-09-20T23:09:28.280Z,8.00
2022-09-20T23:11:58.862Z,7.99
2022-09-20T23:14:29.241Z,7.97
2022-09-20T23:17:31.368Z,7.95
2022-09-20T23:20:02.168Z,7.93
2022-09-20T23:22:32.551Z,7.90
2022-09-20T23:25:03.393Z,7.87
2022-09-20T23:27:33.752Z,7.81
2022-09-20T23:30:05.217Z,7.75
2022-09-20T23:32:35.633Z,7.70
2022-09-20T23:35:06.886Z,7.65
2022-09-20T23:37:37.186Z,7.59
2022-09-20T23:40:09.619Z,7.55
2022-09-20T23:42:40.129Z,7.51
2022-09-20T23:45:12.823Z,7.46
2022-09-20T23:47:43.159Z,7.41
2022-09-20T23:50:13.521Z,7.36
2022-09-20T23:52:43.963Z,7.32
2022-09-20T23:55:14.506Z,7.29
2022-09-20T23:57:44.824Z,7.25
